Time;durP1;ratioP1;P1;durP2;ratioP2;P2;SDS_P1;SDS_P2;PMS_P1;PMS_P2;Temp;Humidity;BMP_temperature;BMP_pressure;BME280_temperature;BME280_humidity;BME280_pressure;Samples;Min_cycle;Max_cycle;Signal;HPM_P1;HPM_P2
2021/12/06 18:19:54;;;;;;;13.47;10.07;;;;;;;-15.57;70.90;102024.94;4897948;27;6649167;-65
2021/12/06 18:23:32;;;;;;;11.45;9.05;;;;;;;-15.53;70.75;102021.63;5108212;28;20093;-65
2021/12/06 18:26:05;;;;;;;15.32;8.20;;;;;;;-15.51;70.82;102004.63;5107759;28;20043;-64
2021/12/06 18:29:03;;;;;;;15.40;8.68;;;;;;;-16.21;70.77;101884.94;5108146;28;20394;-65
2021/12/06 18:31:29;;;;;;;;;;;;;;;-15.34;69.68;102010.91;5088460;28;20035;-67
2021/12/06 18:33:54;;;;;;;15.83;8.53;;;;;;;-15.51;70.31;101984.19;5109511;28;19916;-60
2021/12/06 18:36:22;;;;;;;10.70;8.57;;;;;;;-15.43;70.33;101976.69;5110272;28;20035;-65
2021/12/06 18:38:57;;;;;;;12.32;9.98;;;;;;;-15.30;69.54;101990.56;5109347;28;20127;-62
2021/12/06 18:41:31;;;;;;;16.83;11.40;;;;;;;-15.21;69.71;101990.72;5109146;28;20581;-65
2021/12/06 18:46:32;;;;;;;13.73;9.82;;;;;;;-15.18;70.32;101994.19;5109424;28;20524;-66
2021/12/06 18:48:59;;;;;;;15.73;10.40;;;;;;;-15.24;70.07;101977.91;5109097;28;20036;-64
2021/12/06 18:51:26;;;;;;;10.57;9.35;;;;;;;-15.21;70.20;101983.06;5108901;28;20494;-64
2021/12/06 18:53:55;;;;;;;13.85;8.30;;;;;;;-15.27;69.57;101968.47;5108770;28;20027;-64
2021/12/06 18:56:27;;;;;;;13.38;8.57;;;;;;;-15.28;70.23;101971.00;5107343;28;20035;-66
2021/12/06 18:58:52;;;;;;;14.35;9.02;;;;;;;-15.16;70.64;101976.34;5108683;28;20187;-64
2021/12/06 19:01:24;;;;;;;15.63;8.87;;;;;;;-15.21;69.60;101960.06;5107085;28;20036;-62
2021/12/06 19:03:51;;;;;;;12.23;7.55;;;;;;;-15.26;68.87;101960.00;5108552;28;20540;-63
2021/12/06 19:06:23;;;;;;;9.25;8.00;;;;;;;-15.55;69.92;101926.25;5108950;28;20023;-65
2021/12/06 19:08:49;;;;;;;14.75;8.40;;;;;;;-15.61;69.92;101897.19;5108698;28;20032;-60
2021/12/06 19:11:14;;;;;;;12.30;8.07;;;;;;;-15.15;69.18;101978.06;5108527;28;20403;-62
2021/12/06 19:13:40;;;;;;;14.00;8.53;;;;;;;-15.31;69.25;101955.63;5108415;28;20040;-64
2021/12/06 19:16:07;;;;;;;17.50;9.30;;;;;;;-15.25;69.90;101971.06;5107328;28;20035;-64
2021/12/06 19:18:35;;;;;;;8.32;7.50;;;;;;;-15.24;70.24;101965.97;5106714;28;20055;-62
2021/12/06 19:21:00;;;;;;;10.80;9.60;;;;;;;-15.18;70.44;101949.91;5108209;28;20040;-64
2021/12/06 19:23:27;;;;;;;10.03;8.33;;;;;;;-15.29;70.18;101913.09;5108408;28;20039;-62
2021/12/06 19:25:55;;;;;;;11.15;8.13;;;;;;;-15.14;69.89;101949.13;5108232;28;20031;-65
2021/12/06 19:28:53;;;;;;;19.15;10.32;;;;;;;-15.19;69.58;101943.94;5106192;28;20121;-64
2021/12/06 19:31:22;;;;;;;17.73;9.20;;;;;;;-15.24;70.59;101940.44;5094741;28;20047;-64
2021/12/06 19:33:49;;;;;;;15.02;10.18;;;;;;;-15.26;70.22;101949.78;5094707;28;20039;-65
2021/12/06 19:36:18;;;;;;;15.07;9.43;;;;;;;-15.27;69.94;101949.75;5094473;28;20035;-64
2021/12/06 19:38:44;;;;;;;11.73;9.38;;;;;;;-15.19;69.74;101971.16;5093984;28;20489;-65
2021/12/06 19:41:11;;;;;;;10.77;9.00;;;;;;;-15.22;69.81;101979.66;5094421;28;20043;-62
2021/12/06 19:43:49;;;;;;;10.25;9.10;;;;;;;-15.99;69.84;101865.00;5093549;28;20079;-64
2021/12/06 19:46:15;;;;;;;18.83;9.18;;;;;;;-15.31;69.84;101960.75;5092746;28;20060;-62
2021/12/06 19:48:43;;;;;;;13.57;10.93;;;;;;;-15.32;70.24;101959.88;5094394;28;20119;-63
2021/12/06 19:51:10;;;;;;;14.80;8.85;;;;;;;-16.33;70.37;101802.25;5094350;28;20070;-64
2021/12/06 19:53:41;;;;;;;16.65;9.07;;;;;;;-15.25;70.28;101968.50;5094498;28;20035;-61
2021/12/06 19:56:14;;;;;;;10.63;7.70;;;;;;;-15.32;69.90;101961.53;5094279;28;20068;-63
2021/12/06 19:58:44;;;;;;;11.68;8.45;;;;;;;-15.40;70.21;101954.59;5093904;28;20032;-59
2021/12/06 20:01:12;;;;;;;12.88;8.55;;;;;;;-15.46;70.71;101941.72;5092663;28;20028;-63
2021/12/06 20:03:47;;;;;;;16.87;8.67;;;;;;;-15.47;70.40;101928.94;5092876;28;20032;-64
2021/12/06 20:06:17;;;;;;;14.50;9.75;;;;;;;-15.39;70.49;101933.34;5094401;28;20134;-64
2021/12/06 20:08:48;;;;;;;15.93;10.48;;;;;;;-15.36;70.75;101941.06;5094010;28;20490;-63
2021/12/06 20:11:17;;;;;;;15.35;8.95;;;;;;;-15.39;70.40;101928.22;5093722;28;20031;-62
2021/12/06 20:13:44;;;;;;;10.53;8.70;;;;;;;-15.31;70.63;101940.31;5093488;28;20443;-62
2021/12/06 20:16:12;;;;;;;10.63;9.35;;;;;;;-15.41;70.09;101929.03;5093863;28;20042;-65
2021/12/06 20:18:44;;;;;;;14.23;7.97;;;;;;;-15.34;70.23;101957.25;5104434;28;20059;-61
2021/12/06 20:21:14;;;;;;;18.40;9.93;;;;;;;-15.38;70.74;101960.59;5114259;28;20051;-62
2021/12/06 20:23:41;;;;;;;11.35;8.57;;;;;;;-15.55;70.85;101936.44;5113600;28;20085;-65
2021/12/06 20:26:08;;;;;;;12.13;8.93;;;;;;;-15.66;70.36;101928.59;5113685;28;20039;-63
2021/12/06 20:28:35;;;;;;;11.25;10.07;;;;;;;-15.64;70.47;101941.38;5095287;28;20031;-64
2021/12/06 20:31:04;;;;;;;13.68;11.18;;;;;;;-16.45;70.88;101835.16;5113652;28;20035;-62
2021/12/06 20:33:30;;;;;;;11.43;8.60;;;;;;;-15.66;71.19;101966.03;5079425;28;20046;-64
2021/12/06 20:35:56;;;;;;;11.83;9.20;;;;;;;-15.62;71.58;101975.47;5113855;28;20043;-61
2021/12/06 20:38:22;;;;;;;14.05;7.13;;;;;;;-15.65;71.49;101957.53;5113282;28;20157;-66
2021/12/06 20:40:49;;;;;;;10.23;8.60;;;;;;;-15.85;71.19;101920.56;5112196;28;20039;-63
2021/12/06 20:43:18;;;;;;;11.05;8.80;;;;;;;-15.88;72.42;101911.16;5113208;28;20043;-64
2021/12/06 20:45:56;;;;;;;11.40;9.68;;;;;;;-15.61;71.78;101958.47;5094995;28;20038;-58
2021/12/06 20:48:22;;;;;;;14.02;11.18;;;;;;;-15.53;71.31;101965.44;5113602;28;20039;-62
2021/12/06 20:50:48;;;;;;;15.23;9.63;;;;;;;-15.64;71.49;101946.50;5112329;28;20402;-62
2021/12/06 20:53:18;;;;;;;10.10;9.07;;;;;;;-15.49;71.20;101966.34;5113365;28;20402;-63
2021/12/06 20:55:44;;;;;;;12.40;8.57;;;;;;;-15.68;71.25;101921.75;5113677;28;20511;-63
2021/12/06 20:58:11;;;;;;;10.85;9.52;;;;;;;-15.48;71.87;101958.72;5113853;28;20040;-64
2021/12/06 21:00:38;;;;;;;12.70;9.43;;;;;;;-15.41;71.61;101955.44;5113873;28;20076;-65
2021/12/06 21:03:05;;;;;;;11.73;10.20;;;;;;;-15.38;71.54;101950.38;5113867;28;20093;-61
2021/12/06 21:05:31;;;;;;;11.10;9.68;;;;;;;-15.42;70.88;101938.38;5114278;28;20035;-63
2021/12/06 21:07:57;;;;;;;15.95;9.80;;;;;;;-15.41;71.03;101944.34;5113776;28;20398;-59
2021/12/06 21:10:30;;;;;;;12.30;10.05;;;;;;;-15.63;70.97;101899.72;5095435;28;20034;-63
2021/12/06 21:13:12;;;;;;;12.82;9.18;;;;;;;-15.35;71.21;101932.56;5113776;28;20045;-63
2021/12/06 21:18:21;;;;;;;14.77;10.15;;;;;;;-14.98;70.61;101951.13;5113179;28;20052;-60
2021/12/06 21:20:49;;;;;;;11.18;9.60;;;;;;;-15.03;70.23;101937.41;5113376;28;20036;-64
2021/12/06 21:23:15;;;;;;;11.38;10.30;;;;;;;-15.04;70.53;101922.88;5113279;28;20101;-61
2021/12/06 21:25:40;;;;;;;12.05;9.57;;;;;;;-14.94;70.13;101922.22;5113456;28;20049;-61
2021/12/06 21:28:07;;;;;;;16.60;9.80;;;;;;;-14.81;69.71;101939.47;5094639;28;20031;-64
2021/12/06 21:30:33;;;;;;;17.90;9.93;;;;;;;-14.74;69.85;101930.22;5112961;28;20433;-63
2021/12/06 21:33:03;;;;;;;9.83;8.33;;;;;;;-14.78;70.08;101918.19;5112846;28;20039;-58
2021/12/06 21:35:29;;;;;;;13.82;9.23;;;;;;;-14.64;70.18;101936.31;5113205;28;20380;-61
2021/12/06 21:37:56;;;;;;;14.23;9.45;;;;;;;-14.76;69.86;101911.41;5113168;28;20074;-58
2021/12/06 21:40:24;;;;;;;16.40;9.02;;;;;;;-14.73;69.36;101927.69;5113088;28;20040;-64
2021/12/06 21:42:51;;;;;;;11.50;8.60;;;;;;;-14.67;69.75;101915.81;5112785;28;20550;-63
2021/12/06 21:45:16;;;;;;;16.23;9.18;;;;;;;-14.80;69.16;101904.53;5094599;28;20383;-61
2021/12/06 21:47:42;;;;;;;10.00;8.37;;;;;;;-14.75;69.95;101901.19;5113173;28;20034;-60
2021/12/06 21:50:10;;;;;;;11.93;8.07;;;;;;;-14.68;68.89;101909.00;5114480;28;20434;-60
2021/12/06 21:52:36;;;;;;;15.05;9.27;;;;;;;-14.68;69.91;101907.28;5115308;28;20027;-56
2021/12/06 21:55:04;;;;;;;14.85;10.70;;;;;;;-14.66;69.35;101897.94;5114999;28;20043;-58
2021/12/06 21:57:30;;;;;;;12.18;9.23;;;;;;;-14.63;69.62;101902.25;5114843;28;20493;-59
2021/12/06 21:59:55;;;;;;;12.97;10.03;;;;;;;-14.56;69.29;101889.56;5097723;28;20046;-60
2021/12/06 22:02:22;;;;;;;12.53;8.67;;;;;;;-14.45;69.14;101897.41;5115529;28;20512;-60
2021/12/06 22:04:48;;;;;;;17.30;10.18;;;;;;;-14.56;68.96;101886.13;5116042;28;20035;-62
2021/12/06 22:07:15;;;;;;;18.23;9.77;;;;;;;-14.55;68.87;101880.19;5115215;28;20031;-61
2021/12/06 22:09:42;;;;;;;13.95;8.70;;;;;;;-14.62;69.65;101863.03;5115132;28;20047;-62
2021/12/06 22:12:08;;;;;;;14.77;10.43;;;;;;;-14.62;69.65;101873.28;5116418;28;20046;-61
2021/12/06 22:14:33;;;;;;;10.60;8.93;;;;;;;-14.59;69.12;101878.44;5115430;28;20039;-61
2021/12/06 22:17:00;;;;;;;11.07;8.03;;;;;;;-14.59;69.12;101880.97;5116285;28;20032;-61
2021/12/06 22:19:30;;;;;;;12.48;8.43;;;;;;;-14.54;69.08;101899.81;5113543;28;20063;-64
2021/12/06 22:21:56;;;;;;;12.48;9.73;;;;;;;-14.61;69.67;101875.84;5112799;28;20079;-63
2021/12/06 22:24:23;;;;;;;13.57;9.77;;;;;;;-14.54;69.61;101881.91;5112294;28;20067;-60
2021/12/06 22:26:49;;;;;;;12.63;8.13;;;;;;;-14.47;69.73;101888.81;5112705;28;20090;-59
2021/12/06 22:29:15;;;;;;;16.98;10.30;;;;;;;-14.66;69.57;101839.13;5093993;28;20051;-64
2021/12/06 22:31:40;;;;;;;13.93;8.47;;;;;;;-14.43;69.20;101885.50;5112378;28;20074;-60
2021/12/06 22:34:06;;;;;;;12.83;8.30;;;;;;;-14.45;70.18;101872.69;5112298;28;20055;-61
2021/12/06 22:36:34;;;;;;;10.52;8.40;;;;;;;-14.28;68.95;101877.97;5112350;28;20044;-62
2021/12/06 22:39:00;;;;;;;13.88;9.63;;;;;;;-14.25;69.36;101870.34;5112156;28;20084;-64
2021/12/06 22:41:27;;;;;;;10.45;9.20;;;;;;;-14.24;68.72;101872.06;5112081;28;20035;-61
2021/12/06 22:43:53;;;;;;;10.00;8.50;;;;;;;-14.47;68.40;101842.78;5111882;28;20382;-61
2021/12/06 22:46:18;;;;;;;10.87;9.53;;;;;;;-14.76;69.07;101815.09;5112228;28;20115;-62
2021/12/06 22:48:44;;;;;;;15.50;8.23;;;;;;;-14.45;68.52;101864.16;5112183;28;20032;-64
2021/12/06 22:51:11;;;;;;;9.87;8.40;;;;;;;-14.39;69.62;101871.88;5112190;28;20484;-61
2021/12/06 22:53:37;;;;;;;15.60;10.95;;;;;;;-14.48;68.98;101847.03;5111940;28;20027;-60
2021/12/06 22:56:03;;;;;;;12.38;9.15;;;;;;;-14.34;68.92;101872.78;5111863;28;20055;-62
2021/12/06 22:58:29;;;;;;;11.73;8.73;;;;;;;-14.45;68.88;101848.81;5111670;28;20479;-64
2021/12/06 23:01:03;;;;;;;20.10;9.97;;;;;;;-14.44;69.53;101858.19;5112395;28;20034;-62
2021/12/06 23:03:31;;;;;;;11.05;9.38;;;;;;;-14.48;69.20;101847.03;5111954;28;20057;-64
2021/12/06 23:05:57;;;;;;;13.50;8.93;;;;;;;-14.59;70.04;101837.50;5115331;28;20088;-64
2021/12/06 23:08:22;;;;;;;17.08;10.30;;;;;;;-14.44;69.75;101847.97;5115160;28;20031;-64
2021/12/06 23:10:49;;;;;;;13.40;9.73;;;;;;;-14.39;69.77;101859.06;5115259;28;20039;-61
2021/12/06 23:13:15;;;;;;;12.82;7.85;;;;;;;-14.44;68.91;101832.59;5115330;28;20421;-61
2021/12/06 23:15:43;;;;;;;14.02;9.50;;;;;;;-14.38;69.68;101844.59;5097413;28;20031;-65
2021/12/06 23:18:10;;;;;;;16.80;10.23;;;;;;;-14.37;69.31;101857.41;5115277;28;20513;-62
2021/12/06 23:20:36;;;;;;;12.35;8.73;;;;;;;-14.53;69.04;101819.69;5115308;28;20058;-62
2021/12/06 23:23:05;;;;;;;10.98;8.93;;;;;;;-14.43;69.43;101829.22;5115109;28;20036;-59
2021/12/06 23:25:31;;;;;;;14.43;8.63;;;;;;;-14.33;69.25;101836.13;5114823;28;20039;-64
2021/12/06 23:28:00;;;;;;;13.37;9.50;;;;;;;-14.50;69.24;101828.25;5114808;28;20280;-62
2021/12/06 23:30:29;;;;;;;14.73;8.25;;;;;;;-14.60;68.94;101815.31;5115391;28;20141;-62
2021/12/06 23:32:57;;;;;;;14.48;9.05;;;;;;;-14.53;69.46;101837.59;5115630;28;20036;-63
2021/12/06 23:35:28;;;;;;;13.35;8.98;;;;;;;-14.64;69.07;101823.81;5115314;28;20047;-63
2021/12/06 23:38:01;;;;;;;18.42;9.88;;;;;;;-14.46;69.17;101836.81;5115227;28;20039;-62
2021/12/06 23:40:47;;;;;;;12.20;9.00;;;;;;;-14.35;69.36;101831.81;5115405;28;20046;-64
2021/12/06 23:48:41;;;;;;;12.85;9.60;;;;;;;-14.34;69.02;101823.31;5114727;28;20421;-63
2021/12/06 23:51:06;;;;;;;12.53;8.70;;;;;;;-14.31;68.69;101820.78;5096893;28;20035;-62
2021/12/06 23:53:33;;;;;;;14.63;10.87;;;;;;;-14.21;68.58;101827.72;5096761;28;20057;-64
2021/12/06 23:55:58;;;;;;;15.52;10.38;;;;;;;-14.18;69.09;101823.50;5114984;28;20031;-62
2021/12/06 23:58:24;;;;;;;16.73;10.80;;;;;;;-14.19;68.54;101808.97;5114783;28;20073;-61
